sensor_id;sensor_type;location;lat;lon;timestamp;P1;durP1;ratioP1;P2;durP2;ratioP2
12052;SDS011;6087;48.982;12.064;2023-05-19T00:01:54;4.32;;;3.05;;
12052;SDS011;6087;48.982;12.064;2023-05-19T00:04:24;4.07;;;2.55;;
12052;SDS011;6087;48.982;12.064;2023-05-19T00:06:52;5.68;;;3.13;;
12052;SDS011;6087;48.982;12.064;2023-05-19T00:09:20;4.28;;;2.95;;
12052;SDS011;6087;48.982;12.064;2023-05-19T00:11:47;3.67;;;3.33;;
12052;SDS011;6087;48.982;12.064;2023-05-19T00:14:16;5.97;;;3.50;;
12052;SDS011;6087;48.982;12.064;2023-05-19T00:16:44;3.58;;;2.80;;
12052;SDS011;6087;48.982;12.064;2023-05-19T00:19:11;5.38;;;2.72;;
12052;SDS011;6087;48.982;12.064;2023-05-19T00:21:38;4.95;;;2.92;;
12052;SDS011;6087;48.982;12.064;2023-05-19T00:24:07;6.88;;;3.28;;
12052;SDS011;6087;48.982;12.064;2023-05-19T00:26:34;4.47;;;3.00;;
12052;SDS011;6087;48.982;12.064;2023-05-19T00:29:01;4.65;;;3.60;;
12052;SDS011;6087;48.982;12.064;2023-05-19T00:31:29;4.07;;;2.60;;
12052;SDS011;6087;48.982;12.064;2023-05-19T00:33:57;3.97;;;2.88;;
12052;SDS011;6087;48.982;12.064;2023-05-19T00:36:24;5.93;;;3.33;;
12052;SDS011;6087;48.982;12.064;2023-05-19T00:38:51;4.47;;;2.72;;
12052;SDS011;6087;48.982;12.064;2023-05-19T00:41:19;3.90;;;2.70;;
12052;SDS011;6087;48.982;12.064;2023-05-19T00:43:46;5.20;;;3.40;;
12052;SDS011;6087;48.982;12.064;2023-05-19T00:46:13;4.47;;;3.20;;
12052;SDS011;6087;48.982;12.064;2023-05-19T00:48:42;7.15;;;2.78;;
12052;SDS011;6087;48.982;12.064;2023-05-19T00:51:09;3.63;;;3.00;;
12052;SDS011;6087;48.982;12.064;2023-05-19T00:53:40;3.42;;;2.97;;
12052;SDS011;6087;48.982;12.064;2023-05-19T00:56:12;7.03;;;3.22;;
12052;SDS011;6087;48.982;12.064;2023-05-19T00:58:40;4.18;;;3.40;;
12052;SDS011;6087;48.982;12.064;2023-05-19T01:01:07;7.22;;;3.10;;
12052;SDS011;6087;48.982;12.064;2023-05-19T01:03:38;9.35;;;3.95;;
12052;SDS011;6087;48.982;12.064;2023-05-19T01:06:08;6.80;;;3.45;;
12052;SDS011;6087;48.982;12.064;2023-05-19T01:08:36;5.20;;;2.80;;
12052;SDS011;6087;48.982;12.064;2023-05-19T01:11:04;7.05;;;2.95;;
12052;SDS011;6087;48.982;12.064;2023-05-19T01:13:31;7.43;;;3.45;;
12052;SDS011;6087;48.982;12.064;2023-05-19T01:16:00;5.60;;;2.83;;
12052;SDS011;6087;48.982;12.064;2023-05-19T01:18:37;4.68;;;2.95;;
12052;SDS011;6087;48.982;12.064;2023-05-19T01:21:29;5.45;;;2.88;;
12052;SDS011;6087;48.982;12.064;2023-05-19T01:24:32;5.28;;;3.42;;
12052;SDS011;6087;48.982;12.064;2023-05-19T01:30:16;8.77;;;3.75;;
12052;SDS011;6087;48.982;12.064;2023-05-19T01:32:54;5.72;;;3.22;;
12052;SDS011;6087;48.982;12.064;2023-05-19T01:35:24;8.98;;;2.80;;
12052;SDS011;6087;48.982;12.064;2023-05-19T01:37:52;5.55;;;2.58;;
12052;SDS011;6087;48.982;12.064;2023-05-19T01:40:23;5.38;;;3.05;;
12052;SDS011;6087;48.982;12.064;2023-05-19T01:42:52;5.70;;;2.90;;
12052;SDS011;6087;48.982;12.064;2023-05-19T01:45:21;5.05;;;3.30;;
12052;SDS011;6087;48.982;12.064;2023-05-19T01:47:50;10.60;;;3.22;;
12052;SDS011;6087;48.982;12.064;2023-05-19T01:50:19;4.72;;;3.03;;
12052;SDS011;6087;48.982;12.064;2023-05-19T01:52:47;7.07;;;2.80;;
12052;SDS011;6087;48.982;12.064;2023-05-19T01:55:13;6.18;;;2.65;;
12052;SDS011;6087;48.982;12.064;2023-05-19T01:57:42;4.88;;;2.92;;
12052;SDS011;6087;48.982;12.064;2023-05-19T02:00:17;6.18;;;3.20;;
12052;SDS011;6087;48.982;12.064;2023-05-19T02:02:55;3.90;;;2.80;;
12052;SDS011;6087;48.982;12.064;2023-05-19T02:05:30;6.78;;;3.05;;
12052;SDS011;6087;48.982;12.064;2023-05-19T02:08:05;5.80;;;2.90;;
12052;SDS011;6087;48.982;12.064;2023-05-19T02:10:39;6.45;;;3.08;;
12052;SDS011;6087;48.982;12.064;2023-05-19T02:13:10;6.28;;;3.10;;
12052;SDS011;6087;48.982;12.064;2023-05-19T02:15:40;8.07;;;3.40;;
12052;SDS011;6087;48.982;12.064;2023-05-19T02:18:09;7.50;;;3.15;;
12052;SDS011;6087;48.982;12.064;2023-05-19T02:20:37;4.75;;;2.75;;
12052;SDS011;6087;48.982;12.064;2023-05-19T02:23:04;3.13;;;2.67;;
12052;SDS011;6087;48.982;12.064;2023-05-19T02:25:31;5.07;;;2.88;;
12052;SDS011;6087;48.982;12.064;2023-05-19T02:27:58;4.45;;;2.70;;
12052;SDS011;6087;48.982;12.064;2023-05-19T02:30:25;5.55;;;2.85;;
12052;SDS011;6087;48.982;12.064;2023-05-19T02:32:54;7.65;;;3.13;;
12052;SDS011;6087;48.982;12.064;2023-05-19T02:35:21;7.25;;;2.97;;
12052;SDS011;6087;48.982;12.064;2023-05-19T02:37:48;9.30;;;3.65;;
12052;SDS011;6087;48.982;12.064;2023-05-19T02:40:16;6.72;;;3.53;;
12052;SDS011;6087;48.982;12.064;2023-05-19T02:42:43;7.20;;;3.38;;
12052;SDS011;6087;48.982;12.064;2023-05-19T02:45:15;7.10;;;3.13;;
12052;SDS011;6087;48.982;12.064;2023-05-19T02:47:42;5.22;;;3.67;;
12052;SDS011;6087;48.982;12.064;2023-05-19T02:50:13;4.45;;;2.72;;
12052;SDS011;6087;48.982;12.064;2023-05-19T02:52:42;5.25;;;3.63;;
12052;SDS011;6087;48.982;12.064;2023-05-19T02:55:09;7.28;;;3.00;;
12052;SDS011;6087;48.982;12.064;2023-05-19T02:57:40;4.07;;;2.35;;
12052;SDS011;6087;48.982;12.064;2023-05-19T03:00:08;4.32;;;2.70;;
12052;SDS011;6087;48.982;12.064;2023-05-19T03:02:38;7.47;;;2.83;;
12052;SDS011;6087;48.982;12.064;2023-05-19T03:05:06;5.25;;;3.40;;
12052;SDS011;6087;48.982;12.064;2023-05-19T03:07:35;5.95;;;2.92;;
12052;SDS011;6087;48.982;12.064;2023-05-19T03:10:02;5.35;;;3.08;;
12052;SDS011;6087;48.982;12.064;2023-05-19T03:12:33;6.22;;;3.17;;
12052;SDS011;6087;48.982;12.064;2023-05-19T03:15:00;5.35;;;2.60;;
12052;SDS011;6087;48.982;12.064;2023-05-19T03:17:26;6.60;;;2.85;;
12052;SDS011;6087;48.982;12.064;2023-05-19T03:19:57;6.13;;;2.70;;
12052;SDS011;6087;48.982;12.064;2023-05-19T03:22:25;4.63;;;2.47;;
12052;SDS011;6087;48.982;12.064;2023-05-19T03:24:53;5.93;;;2.63;;
12052;SDS011;6087;48.982;12.064;2023-05-19T03:27:23;5.68;;;2.83;;
12052;SDS011;6087;48.982;12.064;2023-05-19T03:29:52;4.07;;;2.67;;
12052;SDS011;6087;48.982;12.064;2023-05-19T03:32:19;4.90;;;2.80;;
12052;SDS011;6087;48.982;12.064;2023-05-19T03:34:46;5.55;;;2.50;;
12052;SDS011;6087;48.982;12.064;2023-05-19T03:37:16;7.88;;;3.03;;
12052;SDS011;6087;48.982;12.064;2023-05-19T03:39:45;5.80;;;2.72;;
12052;SDS011;6087;48.982;12.064;2023-05-19T03:42:17;4.53;;;2.80;;
12052;SDS011;6087;48.982;12.064;2023-05-19T03:44:43;3.83;;;2.85;;
12052;SDS011;6087;48.982;12.064;2023-05-19T03:47:10;7.40;;;2.88;;
12052;SDS011;6087;48.982;12.064;2023-05-19T03:49:37;6.18;;;3.38;;
12052;SDS011;6087;48.982;12.064;2023-05-19T03:52:13;6.20;;;2.90;;
12052;SDS011;6087;48.982;12.064;2023-05-19T03:54:41;5.95;;;3.08;;
12052;SDS011;6087;48.982;12.064;2023-05-19T03:57:07;5.00;;;2.83;;
12052;SDS011;6087;48.982;12.064;2023-05-19T03:59:38;5.57;;;2.83;;
12052;SDS011;6087;48.982;12.064;2023-05-19T04:02:06;5.28;;;2.78;;
12052;SDS011;6087;48.982;12.064;2023-05-19T04:04:32;6.18;;;2.78;;
12052;SDS011;6087;48.982;12.064;2023-05-19T04:07:01;7.55;;;3.67;;
12052;SDS011;6087;48.982;12.064;2023-05-19T04:09:34;5.82;;;2.42;;
12052;SDS011;6087;48.982;12.064;2023-05-19T04:12:01;6.45;;;2.63;;
12052;SDS011;6087;48.982;12.064;2023-05-19T04:14:38;4.80;;;2.45;;
12052;SDS011;6087;48.982;12.064;2023-05-19T04:17:05;3.13;;;2.80;;
12052;SDS011;6087;48.982;12.064;2023-05-19T04:19:33;4.97;;;2.95;;
12052;SDS011;6087;48.982;12.064;2023-05-19T04:21:59;4.47;;;2.60;;
12052;SDS011;6087;48.982;12.064;2023-05-19T04:24:29;5.88;;;2.80;;
12052;SDS011;6087;48.982;12.064;2023-05-19T04:26:59;5.20;;;2.80;;
12052;SDS011;6087;48.982;12.064;2023-05-19T04:29:28;7.80;;;3.33;;
12052;SDS011;6087;48.982;12.064;2023-05-19T04:31:58;4.63;;;2.90;;
12052;SDS011;6087;48.982;12.064;2023-05-19T04:34:25;7.65;;;3.35;;
12052;SDS011;6087;48.982;12.064;2023-05-19T04:36:52;7.60;;;2.72;;
12052;SDS011;6087;48.982;12.064;2023-05-19T04:39:19;4.47;;;3.33;;
12052;SDS011;6087;48.982;12.064;2023-05-19T04:41:49;4.20;;;2.35;;
12052;SDS011;6087;48.982;12.064;2023-05-19T04:44:18;5.45;;;2.58;;
12052;SDS011;6087;48.982;12.064;2023-05-19T04:46:45;5.10;;;2.80;;
12052;SDS011;6087;48.982;12.064;2023-05-19T04:49:13;6.68;;;2.70;;
12052;SDS011;6087;48.982;12.064;2023-05-19T04:51:40;6.50;;;2.95;;
12052;SDS011;6087;48.982;12.064;2023-05-19T04:54:06;5.90;;;2.63;;
12052;SDS011;6087;48.982;12.064;2023-05-19T04:56:34;3.70;;;2.72;;
12052;SDS011;6087;48.982;12.064;2023-05-19T04:59:04;3.95;;;2.80;;
12052;SDS011;6087;48.982;12.064;2023-05-19T05:01:34;5.93;;;2.60;;
12052;SDS011;6087;48.982;12.064;2023-05-19T05:04:04;3.90;;;2.42;;
12052;SDS011;6087;48.982;12.064;2023-05-19T05:06:39;5.85;;;2.63;;
12052;SDS011;6087;48.982;12.064;2023-05-19T05:09:11;4.55;;;2.50;;
12052;SDS011;6087;48.982;12.064;2023-05-19T05:11:38;4.90;;;2.85;;
12052;SDS011;6087;48.982;12.064;2023-05-19T05:14:06;7.00;;;2.97;;
12052;SDS011;6087;48.982;12.064;2023-05-19T05:16:33;4.13;;;2.25;;
12052;SDS011;6087;48.982;12.064;2023-05-19T05:19:01;9.05;;;3.22;;
12052;SDS011;6087;48.982;12.064;2023-05-19T05:21:28;7.10;;;3.00;;
12052;SDS011;6087;48.982;12.064;2023-05-19T05:23:57;6.72;;;2.85;;
12052;SDS011;6087;48.982;12.064;2023-05-19T05:26:26;4.88;;;2.45;;
12052;SDS011;6087;48.982;12.064;2023-05-19T05:28:55;5.00;;;2.58;;
12052;SDS011;6087;48.982;12.064;2023-05-19T05:31:22;5.30;;;3.28;;
12052;SDS011;6087;48.982;12.064;2023-05-19T05:33:49;6.07;;;3.10;;
12052;SDS011;6087;48.982;12.064;2023-05-19T05:36:16;5.60;;;2.80;;
12052;SDS011;6087;48.982;12.064;2023-05-19T05:38:43;3.80;;;2.60;;
12052;SDS011;6087;48.982;12.064;2023-05-19T05:41:11;6.18;;;3.00;;
12052;SDS011;6087;48.982;12.064;2023-05-19T05:43:38;9.95;;;3.17;;
12052;SDS011;6087;48.982;12.064;2023-05-19T05:46:05;4.50;;;2.60;;
12052;SDS011;6087;48.982;12.064;2023-05-19T05:48:37;5.13;;;2.60;;
12052;SDS011;6087;48.982;12.064;2023-05-19T05:51:06;6.07;;;2.55;;
12052;SDS011;6087;48.982;12.064;2023-05-19T05:53:35;7.45;;;2.92;;
12052;SDS011;6087;48.982;12.064;2023-05-19T05:56:07;5.57;;;3.40;;
12052;SDS011;6087;48.982;12.064;2023-05-19T05:58:43;4.63;;;2.58;;
12052;SDS011;6087;48.982;12.064;2023-05-19T06:01:10;5.50;;;2.55;;
12052;SDS011;6087;48.982;12.064;2023-05-19T06:03:37;6.80;;;2.95;;
12052;SDS011;6087;48.982;12.064;2023-05-19T06:06:06;3.50;;;2.65;;
12052;SDS011;6087;48.982;12.064;2023-05-19T06:08:33;3.45;;;2.67;;
12052;SDS011;6087;48.982;12.064;2023-05-19T06:11:03;4.57;;;2.75;;
12052;SDS011;6087;48.982;12.064;2023-05-19T06:13:33;6.32;;;2.70;;
12052;SDS011;6087;48.982;12.064;2023-05-19T06:16:04;9.95;;;2.85;;
12052;SDS011;6087;48.982;12.064;2023-05-19T06:18:32;4.20;;;2.75;;
12052;SDS011;6087;48.982;12.064;2023-05-19T06:20:58;3.80;;;2.63;;
12052;SDS011;6087;48.982;12.064;2023-05-19T06:23:25;5.80;;;2.78;;
12052;SDS011;6087;48.982;12.064;2023-05-19T06:25:53;9.40;;;2.72;;
12052;SDS011;6087;48.982;12.064;2023-05-19T06:28:20;5.75;;;2.55;;
12052;SDS011;6087;48.982;12.064;2023-05-19T06:30:46;6.07;;;2.70;;
12052;SDS011;6087;48.982;12.064;2023-05-19T06:33:15;5.07;;;2.83;;
12052;SDS011;6087;48.982;12.064;2023-05-19T06:35:41;6.18;;;2.83;;
12052;SDS011;6087;48.982;12.064;2023-05-19T06:38:08;8.18;;;2.80;;
12052;SDS011;6087;48.982;12.064;2023-05-19T06:40:39;7.25;;;3.03;;
12052;SDS011;6087;48.982;12.064;2023-05-19T06:43:08;5.65;;;2.45;;
12052;SDS011;6087;48.982;12.064;2023-05-19T06:45:35;5.47;;;2.53;;
12052;SDS011;6087;48.982;12.064;2023-05-19T06:48:05;4.97;;;2.83;;
12052;SDS011;6087;48.982;12.064;2023-05-19T06:50:39;6.13;;;2.80;;
12052;SDS011;6087;48.982;12.064;2023-05-19T06:53:11;4.78;;;2.83;;
12052;SDS011;6087;48.982;12.064;2023-05-19T06:55:38;4.75;;;2.45;;
12052;SDS011;6087;48.982;12.064;2023-05-19T06:58:05;7.78;;;2.90;;
12052;SDS011;6087;48.982;12.064;2023-05-19T07:00:32;5.50;;;3.25;;
12052;SDS011;6087;48.982;12.064;2023-05-19T07:02:58;10.57;;;3.00;;
12052;SDS011;6087;48.982;12.064;2023-05-19T07:05:25;6.60;;;3.00;;
12052;SDS011;6087;48.982;12.064;2023-05-19T07:07:53;7.85;;;3.28;;
12052;SDS011;6087;48.982;12.064;2023-05-19T07:10:20;6.55;;;2.83;;
12052;SDS011;6087;48.982;12.064;2023-05-19T07:12:47;7.07;;;3.15;;
12052;SDS011;6087;48.982;12.064;2023-05-19T07:15:17;4.75;;;2.90;;
12052;SDS011;6087;48.982;12.064;2023-05-19T07:17:44;8.35;;;3.10;;
12052;SDS011;6087;48.982;12.064;2023-05-19T07:20:11;5.53;;;2.20;;
12052;SDS011;6087;48.982;12.064;2023-05-19T07:22:38;5.43;;;2.90;;
12052;SDS011;6087;48.982;12.064;2023-05-19T07:25:07;2.83;;;2.53;;
12052;SDS011;6087;48.982;12.064;2023-05-19T07:27:34;3.55;;;3.00;;
12052;SDS011;6087;48.982;12.064;2023-05-19T07:30:02;6.00;;;2.53;;
12052;SDS011;6087;48.982;12.064;2023-05-19T07:32:29;3.60;;;2.45;;
12052;SDS011;6087;48.982;12.064;2023-05-19T07:34:56;2.63;;;2.28;;
12052;SDS011;6087;48.982;12.064;2023-05-19T07:37:23;3.22;;;2.30;;
12052;SDS011;6087;48.982;12.064;2023-05-19T07:39:50;4.55;;;2.20;;
12052;SDS011;6087;48.982;12.064;2023-05-19T07:42:18;6.45;;;2.28;;
12052;SDS011;6087;48.982;12.064;2023-05-19T07:44:45;3.40;;;3.03;;
12052;SDS011;6087;48.982;12.064;2023-05-19T07:47:12;4.68;;;2.28;;
12052;SDS011;6087;48.982;12.064;2023-05-19T07:49:39;3.00;;;2.42;;
12052;SDS011;6087;48.982;12.064;2023-05-19T07:52:06;4.95;;;2.30;;
12052;SDS011;6087;48.982;12.064;2023-05-19T07:54:32;3.92;;;2.38;;
12052;SDS011;6087;48.982;12.064;2023-05-19T07:56:59;5.70;;;2.17;;
12052;SDS011;6087;48.982;12.064;2023-05-19T07:59:28;2.78;;;2.22;;
12052;SDS011;6087;48.982;12.064;2023-05-19T08:01:55;4.00;;;2.83;;
12052;SDS011;6087;48.982;12.064;2023-05-19T08:04:22;2.53;;;2.22;;
12052;SDS011;6087;48.982;12.064;2023-05-19T08:06:48;5.03;;;2.53;;
12052;SDS011;6087;48.982;12.064;2023-05-19T08:09:16;5.32;;;2.22;;
12052;SDS011;6087;48.982;12.064;2023-05-19T08:11:46;5.70;;;2.63;;
12052;SDS011;6087;48.982;12.064;2023-05-19T08:14:13;7.25;;;2.63;;
12052;SDS011;6087;48.982;12.064;2023-05-19T08:16:42;5.45;;;2.38;;
12052;SDS011;6087;48.982;12.064;2023-05-19T08:19:10;3.78;;;2.30;;
12052;SDS011;6087;48.982;12.064;2023-05-19T08:21:37;6.65;;;2.92;;
12052;SDS011;6087;48.982;12.064;2023-05-19T08:24:04;4.35;;;2.40;;
12052;SDS011;6087;48.982;12.064;2023-05-19T08:26:31;3.97;;;2.90;;
12052;SDS011;6087;48.982;12.064;2023-05-19T08:28:58;3.40;;;2.47;;
12052;SDS011;6087;48.982;12.064;2023-05-19T08:31:25;4.53;;;2.10;;
12052;SDS011;6087;48.982;12.064;2023-05-19T08:33:53;3.10;;;2.60;;
12052;SDS011;6087;48.982;12.064;2023-05-19T08:36:20;4.70;;;1.92;;
12052;SDS011;6087;48.982;12.064;2023-05-19T08:38:47;5.50;;;2.35;;
12052;SDS011;6087;48.982;12.064;2023-05-19T08:41:14;2.97;;;2.47;;
12052;SDS011;6087;48.982;12.064;2023-05-19T08:43:41;7.50;;;2.42;;
12052;SDS011;6087;48.982;12.064;2023-05-19T08:46:08;4.28;;;2.30;;
12052;SDS011;6087;48.982;12.064;2023-05-19T08:48:41;5.43;;;2.15;;
12052;SDS011;6087;48.982;12.064;2023-05-19T08:51:10;3.20;;;1.80;;
12052;SDS011;6087;48.982;12.064;2023-05-19T08:53:46;4.85;;;2.25;;
12052;SDS011;6087;48.982;12.064;2023-05-19T08:56:17;4.20;;;1.92;;
12052;SDS011;6087;48.982;12.064;2023-05-19T08:58:47;5.40;;;2.00;;
12052;SDS011;6087;48.982;12.064;2023-05-19T09:01:15;2.78;;;2.03;;
12052;SDS011;6087;48.982;12.064;2023-05-19T09:03:43;4.07;;;2.58;;
12052;SDS011;6087;48.982;12.064;2023-05-19T09:06:12;3.60;;;2.22;;
12052;SDS011;6087;48.982;12.064;2023-05-19T09:08:39;3.13;;;1.92;;
12052;SDS011;6087;48.982;12.064;2023-05-19T09:11:06;10.00;;;2.58;;
12052;SDS011;6087;48.982;12.064;2023-05-19T09:13:34;3.30;;;2.17;;
12052;SDS011;6087;48.982;12.064;2023-05-19T09:16:01;3.72;;;2.50;;
12052;SDS011;6087;48.982;12.064;2023-05-19T09:18:29;3.50;;;2.13;;
12052;SDS011;6087;48.982;12.064;2023-05-19T09:20:56;3.45;;;2.33;;
12052;SDS011;6087;48.982;12.064;2023-05-19T09:23:27;6.78;;;2.65;;
12052;SDS011;6087;48.982;12.064;2023-05-19T09:25:54;3.78;;;2.30;;
12052;SDS011;6087;48.982;12.064;2023-05-19T09:28:23;4.97;;;2.45;;
12052;SDS011;6087;48.982;12.064;2023-05-19T09:31:00;2.13;;;1.92;;
12052;SDS011;6087;48.982;12.064;2023-05-19T09:33:27;4.82;;;2.40;;
12052;SDS011;6087;48.982;12.064;2023-05-19T09:35:55;4.22;;;2.47;;
12052;SDS011;6087;48.982;12.064;2023-05-19T09:38:22;2.72;;;2.00;;
12052;SDS011;6087;48.982;12.064;2023-05-19T09:40:52;5.95;;;2.40;;
12052;SDS011;6087;48.982;12.064;2023-05-19T09:43:20;3.83;;;1.92;;
12052;SDS011;6087;48.982;12.064;2023-05-19T09:45:47;5.43;;;2.40;;
12052;SDS011;6087;48.982;12.064;2023-05-19T09:48:14;2.10;;;1.90;;
12052;SDS011;6087;48.982;12.064;2023-05-19T09:50:42;3.13;;;2.13;;
12052;SDS011;6087;48.982;12.064;2023-05-19T09:53:11;4.63;;;2.05;;
12052;SDS011;6087;48.982;12.064;2023-05-19T09:55:39;2.63;;;2.10;;
12052;SDS011;6087;48.982;12.064;2023-05-19T09:58:08;5.72;;;2.30;;
12052;SDS011;6087;48.982;12.064;2023-05-19T10:00:35;4.20;;;2.70;;
12052;SDS011;6087;48.982;12.064;2023-05-19T10:03:03;3.90;;;2.30;;
12052;SDS011;6087;48.982;12.064;2023-05-19T10:05:34;4.53;;;2.22;;
12052;SDS011;6087;48.982;12.064;2023-05-19T10:08:01;5.55;;;2.00;;
12052;SDS011;6087;48.982;12.064;2023-05-19T10:10:31;2.15;;;1.92;;
12052;SDS011;6087;48.982;12.064;2023-05-19T10:12:59;3.53;;;2.17;;
12052;SDS011;6087;48.982;12.064;2023-05-19T10:15:29;4.72;;;1.90;;
12052;SDS011;6087;48.982;12.064;2023-05-19T10:17:56;2.20;;;1.80;;
12052;SDS011;6087;48.982;12.064;2023-05-19T10:20:26;2.60;;;2.00;;
12052;SDS011;6087;48.982;12.064;2023-05-19T10:22:53;5.72;;;2.45;;
12052;SDS011;6087;48.982;12.064;2023-05-19T10:25:23;4.57;;;1.90;;
12052;SDS011;6087;48.982;12.064;2023-05-19T10:27:51;2.35;;;1.88;;
12052;SDS011;6087;48.982;12.064;2023-05-19T10:30:22;3.22;;;1.98;;
12052;SDS011;6087;48.982;12.064;2023-05-19T10:32:54;3.50;;;1.80;;
12052;SDS011;6087;48.982;12.064;2023-05-19T10:38:26;2.72;;;2.45;;
12052;SDS011;6087;48.982;12.064;2023-05-19T10:40:59;3.38;;;1.95;;
12052;SDS011;6087;48.982;12.064;2023-05-19T10:43:36;5.72;;;1.90;;
12052;SDS011;6087;48.982;12.064;2023-05-19T10:46:12;3.78;;;1.90;;
12052;SDS011;6087;48.982;12.064;2023-05-19T10:48:43;4.85;;;2.38;;
12052;SDS011;6087;48.982;12.064;2023-05-19T10:51:11;2.67;;;1.70;;
12052;SDS011;6087;48.982;12.064;2023-05-19T10:53:39;2.42;;;1.90;;
12052;SDS011;6087;48.982;12.064;2023-05-19T10:56:10;2.63;;;1.98;;
12052;SDS011;6087;48.982;12.064;2023-05-19T10:58:53;2.42;;;2.00;;
12052;SDS011;6087;48.982;12.064;2023-05-19T11:01:20;4.20;;;2.20;;
12052;SDS011;6087;48.982;12.064;2023-05-19T11:03:50;1.95;;;1.58;;
12052;SDS011;6087;48.982;12.064;2023-05-19T11:06:25;3.65;;;2.00;;
12052;SDS011;6087;48.982;12.064;2023-05-19T11:08:53;2.92;;;1.70;;
12052;SDS011;6087;48.982;12.064;2023-05-19T11:11:24;2.95;;;1.98;;
12052;SDS011;6087;48.982;12.064;2023-05-19T11:13:52;2.20;;;1.77;;
12052;SDS011;6087;48.982;12.064;2023-05-19T11:16:26;3.75;;;2.00;;
12052;SDS011;6087;48.982;12.064;2023-05-19T11:18:57;2.13;;;1.85;;
12052;SDS011;6087;48.982;12.064;2023-05-19T11:21:42;3.58;;;2.00;;
12052;SDS011;6087;48.982;12.064;2023-05-19T11:27:12;2.92;;;1.83;;
12052;SDS011;6087;48.982;12.064;2023-05-19T11:29:46;3.15;;;1.73;;
12052;SDS011;6087;48.982;12.064;2023-05-19T11:32:14;2.45;;;1.75;;
12052;SDS011;6087;48.982;12.064;2023-05-19T11:34:43;3.97;;;2.15;;
12052;SDS011;6087;48.982;12.064;2023-05-19T11:37:10;2.03;;;1.70;;
12052;SDS011;6087;48.982;12.064;2023-05-19T11:39:38;3.53;;;1.80;;
12052;SDS011;6087;48.982;12.064;2023-05-19T11:42:05;4.03;;;1.60;;
12052;SDS011;6087;48.982;12.064;2023-05-19T11:44:33;3.65;;;1.60;;
12052;SDS011;6087;48.982;12.064;2023-05-19T11:47:00;2.75;;;1.58;;
12052;SDS011;6087;48.982;12.064;2023-05-19T11:49:27;6.75;;;2.00;;
12052;SDS011;6087;48.982;12.064;2023-05-19T11:51:56;2.83;;;1.67;;
12052;SDS011;6087;48.982;12.064;2023-05-19T11:54:28;2.08;;;1.38;;
12052;SDS011;6087;48.982;12.064;2023-05-19T11:56:56;3.03;;;1.52;;
12052;SDS011;6087;48.982;12.064;2023-05-19T11:59:28;3.90;;;1.55;;
12052;SDS011;6087;48.982;12.064;2023-05-19T12:01:57;2.42;;;1.60;;
12052;SDS011;6087;48.982;12.064;2023-05-19T12:04:26;2.28;;;1.40;;
12052;SDS011;6087;48.982;12.064;2023-05-19T12:06:53;1.50;;;1.40;;
12052;SDS011;6087;48.982;12.064;2023-05-19T12:09:22;2.50;;;1.48;;
12052;SDS011;6087;48.982;12.064;2023-05-19T12:11:49;3.63;;;1.50;;
12052;SDS011;6087;48.982;12.064;2023-05-19T12:14:17;2.63;;;1.33;;
12052;SDS011;6087;48.982;12.064;2023-05-19T12:16:44;3.35;;;1.92;;
12052;SDS011;6087;48.982;12.064;2023-05-19T12:19:10;2.45;;;1.50;;
12052;SDS011;6087;48.982;12.064;2023-05-19T12:21:37;2.22;;;2.03;;
12052;SDS011;6087;48.982;12.064;2023-05-19T12:24:07;5.18;;;1.50;;
12052;SDS011;6087;48.982;12.064;2023-05-19T12:26:36;3.42;;;1.52;;
12052;SDS011;6087;48.982;12.064;2023-05-19T12:29:06;1.63;;;1.45;;
12052;SDS011;6087;48.982;12.064;2023-05-19T12:31:33;2.40;;;1.40;;
12052;SDS011;6087;48.982;12.064;2023-05-19T12:34:00;1.65;;;1.40;;
12052;SDS011;6087;48.982;12.064;2023-05-19T12:36:27;2.28;;;2.03;;
12052;SDS011;6087;48.982;12.064;2023-05-19T12:38:55;3.47;;;1.45;;
12052;SDS011;6087;48.982;12.064;2023-05-19T12:41:23;2.35;;;1.30;;
12052;SDS011;6087;48.982;12.064;2023-05-19T12:43:53;2.40;;;1.42;;
12052;SDS011;6087;48.982;12.064;2023-05-19T12:46:19;2.38;;;1.30;;
12052;SDS011;6087;48.982;12.064;2023-05-19T12:48:46;3.10;;;1.40;;
12052;SDS011;6087;48.982;12.064;2023-05-19T12:51:16;2.35;;;1.60;;
12052;SDS011;6087;48.982;12.064;2023-05-19T12:53:44;2.55;;;1.50;;
12052;SDS011;6087;48.982;12.064;2023-05-19T12:56:11;2.10;;;1.40;;
12052;SDS011;6087;48.982;12.064;2023-05-19T12:58:41;3.35;;;1.60;;
12052;SDS011;6087;48.982;12.064;2023-05-19T13:01:15;1.83;;;1.27;;
12052;SDS011;6087;48.982;12.064;2023-05-19T13:03:44;1.55;;;1.40;;
12052;SDS011;6087;48.982;12.064;2023-05-19T13:06:11;1.70;;;1.55;;
12052;SDS011;6087;48.982;12.064;2023-05-19T13:08:38;4.47;;;1.70;;
12052;SDS011;6087;48.982;12.064;2023-05-19T13:11:06;1.83;;;1.52;;
12052;SDS011;6087;48.982;12.064;2023-05-19T13:13:33;1.60;;;1.50;;
12052;SDS011;6087;48.982;12.064;2023-05-19T13:16:00;2.38;;;2.17;;
12052;SDS011;6087;48.982;12.064;2023-05-19T13:18:28;1.38;;;1.27;;
12052;SDS011;6087;48.982;12.064;2023-05-19T13:20:56;2.35;;;1.60;;
12052;SDS011;6087;48.982;12.064;2023-05-19T13:23:23;1.80;;;1.70;;
12052;SDS011;6087;48.982;12.064;2023-05-19T13:25:51;1.50;;;1.30;;
12052;SDS011;6087;48.982;12.064;2023-05-19T13:28:17;2.25;;;1.55;;
12052;SDS011;6087;48.982;12.064;2023-05-19T13:30:44;4.20;;;1.58;;
12052;SDS011;6087;48.982;12.064;2023-05-19T13:33:12;3.78;;;1.63;;
12052;SDS011;6087;48.982;12.064;2023-05-19T13:35:40;2.88;;;1.50;;
12052;SDS011;6087;48.982;12.064;2023-05-19T13:38:07;1.73;;;1.40;;
12052;SDS011;6087;48.982;12.064;2023-05-19T13:40:35;2.55;;;1.40;;
12052;SDS011;6087;48.982;12.064;2023-05-19T13:43:02;1.75;;;1.40;;
12052;SDS011;6087;48.982;12.064;2023-05-19T13:45:29;3.15;;;1.95;;
12052;SDS011;6087;48.982;12.064;2023-05-19T13:47:57;1.60;;;1.50;;
12052;SDS011;6087;48.982;12.064;2023-05-19T13:50:23;1.48;;;1.35;;
12052;SDS011;6087;48.982;12.064;2023-05-19T13:52:52;2.90;;;1.50;;
12052;SDS011;6087;48.982;12.064;2023-05-19T13:55:19;3.10;;;1.80;;
12052;SDS011;6087;48.982;12.064;2023-05-19T13:57:47;3.92;;;2.60;;
12052;SDS011;6087;48.982;12.064;2023-05-19T14:00:15;3.17;;;1.38;;
12052;SDS011;6087;48.982;12.064;2023-05-19T14:02:43;1.50;;;1.40;;
12052;SDS011;6087;48.982;12.064;2023-05-19T14:05:10;2.13;;;1.52;;
12052;SDS011;6087;48.982;12.064;2023-05-19T14:07:37;1.67;;;1.42;;
12052;SDS011;6087;48.982;12.064;2023-05-19T14:10:06;3.20;;;1.75;;
12052;SDS011;6087;48.982;12.064;2023-05-19T14:12:33;1.40;;;1.30;;
12052;SDS011;6087;48.982;12.064;2023-05-19T14:15:00;1.65;;;1.55;;
12052;SDS011;6087;48.982;12.064;2023-05-19T14:17:27;1.80;;;1.65;;
12052;SDS011;6087;48.982;12.064;2023-05-19T14:19:54;3.10;;;1.50;;
12052;SDS011;6087;48.982;12.064;2023-05-19T14:22:21;2.85;;;1.85;;
12052;SDS011;6087;48.982;12.064;2023-05-19T14:24:48;2.30;;;1.58;;
12052;SDS011;6087;48.982;12.064;2023-05-19T14:27:16;2.95;;;1.67;;
12052;SDS011;6087;48.982;12.064;2023-05-19T14:29:43;1.88;;;1.50;;
12052;SDS011;6087;48.982;12.064;2023-05-19T14:32:10;2.70;;;1.48;;
12052;SDS011;6087;48.982;12.064;2023-05-19T14:34:37;1.65;;;1.52;;
12052;SDS011;6087;48.982;12.064;2023-05-19T14:37:04;2.10;;;1.50;;
12052;SDS011;6087;48.982;12.064;2023-05-19T14:39:31;2.13;;;1.42;;
12052;SDS011;6087;48.982;12.064;2023-05-19T14:41:58;3.42;;;1.60;;
12052;SDS011;6087;48.982;12.064;2023-05-19T14:44:29;5.13;;;1.70;;
12052;SDS011;6087;48.982;12.064;2023-05-19T14:46:57;2.22;;;1.50;;
12052;SDS011;6087;48.982;12.064;2023-05-19T14:49:27;4.25;;;1.73;;
12052;SDS011;6087;48.982;12.064;2023-05-19T14:51:53;2.70;;;1.50;;
12052;SDS011;6087;48.982;12.064;2023-05-19T14:54:25;2.95;;;1.52;;
12052;SDS011;6087;48.982;12.064;2023-05-19T14:56:55;1.83;;;1.60;;
12052;SDS011;6087;48.982;12.064;2023-05-19T14:59:21;1.80;;;1.70;;
12052;SDS011;6087;48.982;12.064;2023-05-19T15:01:50;1.67;;;1.30;;
12052;SDS011;6087;48.982;12.064;2023-05-19T15:04:20;1.75;;;1.55;;
12052;SDS011;6087;48.982;12.064;2023-05-19T15:06:46;2.13;;;1.40;;